Wetterdaten: Woche 05.04.10 - 11.04.10 (KW14)
Datum Zeit Temp. Innen Temp. Aussen UV X Diff Temp. Feuchte Inne Feuchte Auss Sonnenschein Luftdruck Regen ab 0,1 Wind Sonnenschein Windben
05.04.2010 00:00 14,8 C 6,1 C 0,0 UV-I 0,0 C 53 % 87 % 0 % 1018,3 hPa 0,0 l/m 1,8 km/h (1 Bft) 0,00 h 2,7 km/h (1 Bft)
05.04.2010 01:00 14,8 C 6,1 C 0,0 UV-I 0,0 C 53 % 89 % 0 % 1019,3 hPa 0,0 l/m 3,6 km/h (1 Bft) 0,00 h 6,9 km/h (2 Bft)
05.04.2010 02:00 14,8 C 6,3 C 0,0 UV-I 0,0 C 53 % 87 % 0 % 1020,0 hPa 0,0 l/m 3,5 km/h (1 Bft) 0,00 h 5,9 km/h (2 Bft)
05.04.2010 03:00 14,7 C 5,8 C 0,0 UV-I 0,0 C 53 % 87 % 0 % 1020,6 hPa 0,0 l/m 2,4 km/h (1 Bft) 0,00 h 3,8 km/h (1 Bft)
05.04.2010 04:00 14,6 C 5,4 C 0,0 UV-I 0,0 C 52 % 87 % 0 % 1021,5 hPa 0,0 l/m 4,2 km/h (1 Bft) 0,00 h 7,9 km/h (2 Bft)
05.04.2010 05:00 14,4 C 5,0 C 0,0 UV-I 0,0 C 52 % 88 % 0 % 1022,2 hPa 0,0 l/m 5,0 km/h (1 Bft) 0,00 h 7,5 km/h (2 Bft)
05.04.2010 06:00 14,3 C 4,4 C 0,0 UV-I 0,0 C 52 % 88 % 0 % 1022,6 hPa 0,0 l/m 3,8 km/h (1 Bft) 0,00 h 6,4 km/h (2 Bft)
05.04.2010 07:00 14,3 C 4,1 C 0,0 UV-I 0,0 C 51 % 90 % 0 % 1023,4 hPa 0,0 l/m 4,5 km/h (1 Bft) 0,00 h 7,5 km/h (2 Bft)
05.04.2010 08:00 14,2 C 4,5 C 0,4 UV-I 0,0 C 51 % 90 % 0 % 1024,2 hPa 0,0 l/m 7,8 km/h (2 Bft) 0,00 h 11,9 km/h (2 Bft)
05.04.2010 09:00 14,1 C 5,6 C 1,1 UV-I 0,5 C 52 % 87 % 15 % 1024,6 hPa 0,0 l/m 9,0 km/h (2 Bft) 0,00 h 12,2 km/h (2 Bft)
05.04.2010 10:00 14,2 C 7,3 C 3,5 UV-I 5,1 C 52 % 83 % 100 % 1025,3 hPa 0,0 l/m 8,5 km/h (2 Bft) 0,93 h 12,4 km/h (3 Bft)
05.04.2010 11:00 14,4 C 9,1 C 6,5 UV-I 5,0 C 52 % 78 % 100 % 1025,8 hPa 0,0 l/m 9,9 km/h (2 Bft) 0,77 h 14,7 km/h (3 Bft)
05.04.2010 12:00 14,7 C 10,4 C 7,0 UV-I 4,2 C 51 % 71 % 100 % 1026,3 hPa 0,0 l/m 10,4 km/h (2 Bft) 1,00 h 16,8 km/h (3 Bft)
05.04.2010 13:00 15,6 C 11,6 C 5,4 UV-I 3,9 C 49 % 63 % 95 % 1026,7 hPa 0,0 l/m 10,7 km/h (2 Bft) 0,83 h 12,6 km/h (3 Bft)
05.04.2010 14:00 16,6 C 12,2 C 5,5 UV-I 3,2 C 45 % 55 % 89 % 1028,1 hPa 0,0 l/m 12,0 km/h (2 Bft) 0,77 h 18,4 km/h (3 Bft)
05.04.2010 15:00 17,1 C 12,8 C 5,3 UV-I 3,0 C 43 % 52 % 82 % 1028,0 hPa 0,0 l/m 11,3 km/h (2 Bft) 0,60 h 15,9 km/h (3 Bft)
05.04.2010 16:00 17,0 C 12,7 C 3,8 UV-I 1,9 C 42 % 50 % 56 % 1027,1 hPa 0,0 l/m 10,6 km/h (2 Bft) 0,00 h 16,6 km/h (3 Bft)
05.04.2010 17:00 17,0 C 12,3 C 1,9 UV-I 1,3 C 41 % 51 % 37 % 1027,1 hPa 0,0 l/m 8,7 km/h (2 Bft) 0,00 h 12,2 km/h (2 Bft)
05.04.2010 18:00 16,8 C 12,0 C 0,5 UV-I 0,7 C 42 % 53 % 21 % 1027,1 hPa 0,0 l/m 6,6 km/h (2 Bft) 0,00 h 10,2 km/h (2 Bft)
05.04.2010 19:00 16,6 C 11,1 C 0,0 UV-I 0,0 C 42 % 58 % 0 % 1026,9 hPa 0,0 l/m 4,2 km/h (1 Bft) 0,00 h 5,2 km/h (1 Bft)
05.04.2010 20:00 16,1 C 10,3 C 0,0 UV-I 0,0 C 44 % 62 % 0 % 1026,8 hPa 0,0 l/m 1,2 km/h (1 Bft) 0,00 h 2,4 km/h (1 Bft)
05.04.2010 21:00 15,8 C 9,5 C 0,0 UV-I 0,0 C 46 % 66 % 0 % 1026,7 hPa 0,0 l/m 0,7 km/h (0 Bft) 0,00 h 1,4 km/h (1 Bft)
05.04.2010 22:00 15,6 C 8,2 C 0,0 UV-I 0,0 C 46 % 71 % 0 % 1026,7 hPa 0,0 l/m 2,8 km/h (1 Bft) 0,00 h 4,5 km/h (1 Bft)
05.04.2010 23:00 15,4 C 7,1 C 0,0 UV-I 0,0 C 47 % 75 % 0 % 1026,6 hPa 0,0 l/m 3,0 km/h (1 Bft) 0,00 h 5,2 km/h (1 Bft)
06.04.2010 00:00 15,2 C 6,3 C 0,0 UV-I 0,0 C 48 % 77 % 0 % 1026,8 hPa 0,0 l/m 3,4 km/h (1 Bft) 0,00 h 4,7 km/h (1 Bft)
06.04.2010 01:00 15,2 C 5,7 C 0,0 UV-I 0,0 C 48 % 79 % 0 % 1026,7 hPa 0,0 l/m 1,0 km/h (0 Bft) 0,00 h 1,2 km/h (1 Bft)
06.04.2010 02:00 15,1 C 4,9 C 0,0 UV-I 0,0 C 48 % 81 % 0 % 1026,8 hPa 0,0 l/m 0,1 km/h (0 Bft) 0,00 h 0,4 km/h (0 Bft)
06.04.2010 03:00 15,0 C 4,2 C 0,0 UV-I 0,0 C 48 % 83 % 0 % 1026,6 hPa 0,0 l/m 1,4 km/h (1 Bft) 0,00 h 2,7 km/h (1 Bft)
06.04.2010 04:00 14,8 C 3,7 C 0,0 UV-I 0,0 C 48 % 85 % 0 % 1026,2 hPa 0,0 l/m 2,7 km/h (1 Bft) 0,00 h 3,7 km/h (1 Bft)
06.04.2010 05:00 14,8 C 3,3 C 0,0 UV-I 0,0 C 48 % 86 % 0 % 1025,7 hPa 0,0 l/m 2,3 km/h (1 Bft) 0,00 h 4,1 km/h (1 Bft)
06.04.2010 06:00 14,7 C 3,1 C 0,0 UV-I 0,0 C 48 % 86 % 0 % 1025,6 hPa 0,0 l/m 2,1 km/h (1 Bft) 0,00 h 4,0 km/h (1 Bft)
06.04.2010 07:00 14,6 C 2,8 C 0,0 UV-I 0,0 C 48 % 87 % 0 % 1025,2 hPa 0,0 l/m 1,7 km/h (1 Bft) 0,00 h 3,5 km/h (1 Bft)
06.04.2010 08:00 14,6 C 3,2 C 0,1 UV-I 0,3 C 48 % 88 % 8 % 1025,2 hPa 0,0 l/m 1,3 km/h (1 Bft) 0,00 h 3,3 km/h (1 Bft)
06.04.2010 09:00 14,6 C 4,8 C 0,5 UV-I 1,6 C 48 % 87 % 45 % 1024,9 hPa 0,0 l/m 5,3 km/h (1 Bft) 0,07 h 9,1 km/h (2 Bft)
06.04.2010 10:00 14,7 C 7,5 C 3,1 UV-I 7,4 C 48 % 80 % 100 % 1024,7 hPa 0,0 l/m 8,3 km/h (2 Bft) 1,00 h 13,0 km/h (3 Bft)
06.04.2010 11:00 14,8 C 11,3 C 6,2 UV-I 6,7 C 49 % 67 % 100 % 1023,7 hPa 0,0 l/m 9,3 km/h (2 Bft) 0,97 h 14,1 km/h (3 Bft)
06.04.2010 12:00 15,1 C 14,4 C 4,1 UV-I 5,4 C 48 % 56 % 100 % 1023,2 hPa 0,0 l/m 8,9 km/h (2 Bft) 1,00 h 13,2 km/h (3 Bft)
06.04.2010 13:00 16,1 C 16,7 C 2,9 UV-I 4,9 C 47 % 48 % 100 % 1022,7 hPa 0,0 l/m 7,8 km/h (2 Bft) 1,00 h 11,2 km/h (2 Bft)
06.04.2010 14:00 18,1 C 18,7 C 3,8 UV-I 3,9 C 43 % 42 % 100 % 1025,1 hPa 0,0 l/m 9,2 km/h (2 Bft) 0,93 h 10,9 km/h (2 Bft)
06.04.2010 15:00 18,8 C 20,0 C 3,0 UV-I 3,6 C 41 % 38 % 97 % 1024,1 hPa 0,0 l/m 9,0 km/h (2 Bft) 1,00 h 13,3 km/h (3 Bft)
06.04.2010 16:00 19,0 C 20,9 C 3,6 UV-I 3,8 C 41 % 35 % 99 % 1021,7 hPa 0,0 l/m 7,7 km/h (2 Bft) 0,97 h 10,5 km/h (2 Bft)
06.04.2010 17:00 19,4 C 21,0 C 3,5 UV-I 3,7 C 41 % 33 % 99 % 1021,3 hPa 0,0 l/m 6,0 km/h (2 Bft) 1,00 h 8,0 km/h (2 Bft)
06.04.2010 18:00 18,9 C 19,7 C 0,9 UV-I 1,2 C 42 % 35 % 35 % 1020,1 hPa 0,0 l/m 7,3 km/h (2 Bft) 0,10 h 9,9 km/h (2 Bft)
06.04.2010 19:00 18,8 C 17,8 C 0,1 UV-I 0,0 C 41 % 40 % 0 % 1019,5 hPa 0,0 l/m 3,5 km/h (1 Bft) 0,00 h 5,8 km/h (2 Bft)
06.04.2010 20:00 18,4 C 15,7 C 0,0 UV-I 0,0 C 42 % 46 % 0 % 1018,6 hPa 0,0 l/m 2,2 km/h (1 Bft) 0,00 h 3,7 km/h (1 Bft)
06.04.2010 21:00 18,0 C 13,8 C 0,0 UV-I 0,0 C 43 % 53 % 0 % 1018,4 hPa 0,0 l/m 0,4 km/h (0 Bft) 0,00 h 1,1 km/h (1 Bft)
06.04.2010 22:00 17,7 C 12,3 C 0,0 UV-I 0,0 C 44 % 57 % 0 % 1018,2 hPa 0,0 l/m 0,4 km/h (0 Bft) 0,00 h 1,3 km/h (1 Bft)
06.04.2010 23:00 17,6 C 11,6 C 0,0 UV-I 0,0 C 44 % 58 % 0 % 1018,1 hPa 0,0 l/m 2,7 km/h (1 Bft) 0,00 h 4,3 km/h (1 Bft)
07.04.2010 00:00 17,5 C 11,1 C 0,0 UV-I 0,0 C 44 % 59 % 0 % 1017,7 hPa 0,0 l/m 2,9 km/h (1 Bft) 0,00 h 6,2 km/h (2 Bft)
07.04.2010 01:00 17,3 C 10,6 C 0,0 UV-I 0,0 C 45 % 61 % 0 % 1017,6 hPa 0,0 l/m 4,4 km/h (1 Bft) 0,00 h 6,4 km/h (2 Bft)
07.04.2010 02:00 17,2 C 10,1 C 0,0 UV-I 0,0 C 44 % 62 % 0 % 1017,5 hPa 0,0 l/m 5,4 km/h (1 Bft) 0,00 h 8,7 km/h (2 Bft)
07.04.2010 03:00 17,1 C 9,9 C 0,0 UV-I 0,0 C 44 % 62 % 0 % 1017,2 hPa 0,0 l/m 6,7 km/h (2 Bft) 0,00 h 11,4 km/h (2 Bft)
07.04.2010 04:00 16,9 C 9,6 C 0,0 UV-I 0,0 C 45 % 63 % 0 % 1017,2 hPa 0,0 l/m 6,2 km/h (2 Bft) 0,00 h 10,0 km/h (2 Bft)
07.04.2010 05:00 16,7 C 9,3 C 0,0 UV-I 0,0 C 45 % 64 % 0 % 1017,2 hPa 0,0 l/m 6,6 km/h (2 Bft) 0,00 h 8,8 km/h (2 Bft)
07.04.2010 06:00 16,6 C 8,9 C 0,0 UV-I 0,0 C 45 % 65 % 0 % 1017,0 hPa 0,0 l/m 6,1 km/h (2 Bft) 0,00 h 10,2 km/h (2 Bft)
07.04.2010 07:00 16,4 C 8,5 C 0,0 UV-I 0,0 C 45 % 67 % 0 % 1017,1 hPa 0,0 l/m 5,8 km/h (2 Bft) 0,00 h 8,2 km/h (2 Bft)
07.04.2010 08:00 16,4 C 9,0 C 0,2 UV-I 0,3 C 45 % 66 % 9 % 1017,2 hPa 0,0 l/m 10,4 km/h (2 Bft) 0,00 h 14,0 km/h (3 Bft)
07.04.2010 09:00 16,4 C 10,4 C 0,8 UV-I 0,9 C 45 % 64 % 24 % 1017,2 hPa 0,0 l/m 14,5 km/h (3 Bft) 0,03 h 24,4 km/h (4 Bft)
07.04.2010 10:00 16,6 C 12,3 C 3,3 UV-I 5,2 C 45 % 60 % 100 % 1017,2 hPa 0,0 l/m 12,6 km/h (3 Bft) 0,90 h 19,7 km/h (3 Bft)
07.04.2010 11:00 16,9 C 14,9 C 5,7 UV-I 5,1 C 45 % 54 % 100 % 1017,4 hPa 0,0 l/m 10,7 km/h (2 Bft) 0,83 h 17,1 km/h (3 Bft)
07.04.2010 12:00 17,4 C 16,9 C 2,6 UV-I 2,9 C 45 % 51 % 77 % 1017,6 hPa 0,0 l/m 8,8 km/h (2 Bft) 0,33 h 12,5 km/h (3 Bft)
07.04.2010 13:00 18,0 C 18,5 C 2,7 UV-I 2,9 C 45 % 48 % 73 % 1017,6 hPa 0,0 l/m 7,5 km/h (2 Bft) 0,33 h 11,1 km/h (2 Bft)
07.04.2010 14:00 18,5 C 19,6 C 2,6 UV-I 2,9 C 44 % 46 % 74 % 1018,0 hPa 0,0 l/m 4,6 km/h (1 Bft) 0,43 h 7,1 km/h (2 Bft)
07.04.2010 15:00 18,9 C 20,8 C 1,3 UV-I 2,2 C 43 % 43 % 54 % 1018,5 hPa 0,0 l/m 3,1 km/h (1 Bft) 0,23 h 4,6 km/h (1 Bft)
07.04.2010 16:00 18,8 C 20,3 C 0,9 UV-I 0,7 C 44 % 45 % 20 % 1017,9 hPa 0,0 l/m 2,1 km/h (1 Bft) 0,00 h 3,1 km/h (1 Bft)
07.04.2010 17:00 18,9 C 20,0 C 1,1 UV-I 1,4 C 44 % 45 % 40 % 1017,7 hPa 0,0 l/m 1,8 km/h (1 Bft) 0,00 h 2,8 km/h (1 Bft)
07.04.2010 18:00 18,8 C 19,4 C 0,1 UV-I 0,2 C 44 % 47 % 6 % 1017,7 hPa 0,0 l/m 1,6 km/h (1 Bft) 0,00 h 1,6 km/h (1 Bft)
07.04.2010 19:00 18,7 C 18,2 C 0,0 UV-I 0,0 C 44 % 53 % 0 % 1017,7 hPa 0,0 l/m 0,4 km/h (0 Bft) 0,00 h 0,4 km/h (0 Bft)
07.04.2010 20:00 18,4 C 16,7 C 0,0 UV-I 0,0 C 46 % 60 % 0 % 1017,9 hPa 0,0 l/m 0,0 km/h (0 Bft) 0,00 h 0,0 km/h (0 Bft)
07.04.2010 21:00 18,2 C 15,2 C 0,0 UV-I 0,0 C 47 % 65 % 0 % 1018,3 hPa 0,0 l/m 0,0 km/h (0 Bft) 0,00 h 0,4 km/h (0 Bft)
07.04.2010 22:00 18,1 C 14,3 C 0,0 UV-I 0,0 C 48 % 67 % 0 % 1018,7 hPa 0,0 l/m 0,1 km/h (0 Bft) 0,00 h 0,0 km/h (0 Bft)
07.04.2010 23:00 18,1 C 13,7 C 0,0 UV-I 0,0 C 48 % 70 % 0 % 1019,2 hPa 0,0 l/m 0,0 km/h (0 Bft) 0,00 h 0,0 km/h (0 Bft)
08.04.2010 00:00 18,0 C 13,5 C 0,0 UV-I 0,0 C 48 % 72 % 0 % 1019,4 hPa 0,0 l/m 1,4 km/h (1 Bft) 0,00 h 3,1 km/h (1 Bft)
08.04.2010 01:00 18,0 C 13,6 C 0,0 UV-I 0,0 C 49 % 72 % 0 % 1019,9 hPa 0,0 l/m 3,2 km/h (1 Bft) 0,00 h 5,7 km/h (1 Bft)
08.04.2010 02:00 18,0 C 13,2 C 0,0 UV-I 0,0 C 49 % 74 % 0 % 1020,1 hPa 0,0 l/m 4,2 km/h (1 Bft) 0,00 h 8,4 km/h (2 Bft)
08.04.2010 03:00 17,9 C 12,5 C 0,0 UV-I 0,0 C 50 % 78 % 0 % 1020,5 hPa 0,1 l/m 3,8 km/h (1 Bft) 0,00 h 6,0 km/h (2 Bft)
08.04.2010 04:00 17,7 C 11,9 C 0,0 UV-I 0,0 C 51 % 81 % 0 % 1020,8 hPa 0,0 l/m 5,1 km/h (1 Bft) 0,00 h 7,1 km/h (2 Bft)
08.04.2010 05:00 17,6 C 11,6 C 0,0 UV-I 0,0 C 51 % 83 % 0 % 1021,3 hPa 0,0 l/m 3,0 km/h (1 Bft) 0,00 h 4,2 km/h (1 Bft)
08.04.2010 06:00 17,6 C 11,3 C 0,0 UV-I 0,0 C 52 % 85 % 0 % 1022,1 hPa 0,0 l/m 1,7 km/h (1 Bft) 0,00 h 2,7 km/h (1 Bft)
08.04.2010 07:00 17,5 C 11,1 C 0,0 UV-I 0,0 C 53 % 87 % 0 % 1022,8 hPa 0,0 l/m 0,9 km/h (0 Bft) 0,00 h 1,6 km/h (1 Bft)
08.04.2010 08:00 17,3 C 11,0 C 0,0 UV-I 0,0 C 55 % 88 % 0 % 1023,7 hPa 0,0 l/m 0,5 km/h (0 Bft) 0,00 h 0,5 km/h (0 Bft)
08.04.2010 09:00 17,3 C 11,1 C 0,0 UV-I 0,0 C 56 % 89 % 0 % 1024,6 hPa 0,1 l/m 0,1 km/h (0 Bft) 0,00 h 0,5 km/h (0 Bft)
08.04.2010 10:00 17,2 C 11,2 C 0,0 UV-I 0,0 C 56 % 90 % 0 % 1025,1 hPa 0,0 l/m 0,3 km/h (0 Bft) 0,00 h 0,3 km/h (0 Bft)
08.04.2010 11:00 17,2 C 11,4 C 0,1 UV-I 0,0 C 57 % 90 % 0 % 1025,6 hPa 0,2 l/m 1,4 km/h (1 Bft) 0,00 h 1,9 km/h (1 Bft)
08.04.2010 12:00 17,2 C 11,4 C 0,1 UV-I 0,0 C 58 % 91 % 0 % 1026,1 hPa 0,4 l/m 2,7 km/h (1 Bft) 0,00 h 4,4 km/h (1 Bft)
08.04.2010 13:00 17,2 C 11,1 C 0,3 UV-I 0,0 C 58 % 91 % 0 % 1026,8 hPa 0,0 l/m 4,7 km/h (1 Bft) 0,00 h 7,4 km/h (2 Bft)
08.04.2010 14:00 17,2 C 10,8 C 0,2 UV-I 0,0 C 58 % 91 % 0 % 1027,3 hPa 0,1 l/m 5,2 km/h (1 Bft) 0,00 h 6,9 km/h (2 Bft)
08.04.2010 15:00 17,1 C 10,5 C 0,3 UV-I 0,0 C 58 % 90 % 1 % 1027,7 hPa 0,0 l/m 6,0 km/h (2 Bft) 0,00 h 8,3 km/h (2 Bft)
08.04.2010 16:00 17,0 C 10,6 C 0,2 UV-I 0,3 C 57 % 89 % 9 % 1028,1 hPa 0,0 l/m 2,7 km/h (1 Bft) 0,00 h 3,9 km/h (1 Bft)
08.04.2010 17:00 17,1 C 11,0 C 0,0 UV-I 0,3 C 57 % 88 % 8 % 1028,4 hPa 0,0 l/m 3,9 km/h (1 Bft) 0,00 h 5,3 km/h (1 Bft)
08.04.2010 18:00 17,0 C 11,1 C 0,0 UV-I 0,0 C 57 % 86 % 0 % 1029,1 hPa 0,0 l/m 5,7 km/h (1 Bft) 0,00 h 7,4 km/h (2 Bft)
08.04.2010 19:00 16,9 C 11,0 C 0,0 UV-I 0,0 C 57 % 83 % 0 % 1029,6 hPa 0,0 l/m 4,1 km/h (1 Bft) 0,00 h 4,9 km/h (1 Bft)
08.04.2010 20:00 16,9 C 10,3 C 0,0 UV-I 0,0 C 56 % 83 % 0 % 1030,1 hPa 0,0 l/m 0,8 km/h (0 Bft) 0,00 h 1,1 km/h (0 Bft)
08.04.2010 21:00 16,7 C 8,8 C 0,0 UV-I 0,0 C 55 % 86 % 0 % 1030,6 hPa 0,0 l/m 0,0 km/h (0 Bft) 0,00 h 0,0 km/h (0 Bft)
08.04.2010 22:00 16,4 C 7,5 C 0,0 UV-I 0,0 C 55 % 88 % 0 % 1031,0 hPa 0,0 l/m 0,0 km/h (0 Bft) 0,00 h 0,0 km/h (0 Bft)
08.04.2010 23:00 16,2 C 6,2 C 0,0 UV-I 0,0 C 54 % 89 % 0 % 1031,2 hPa 0,0 l/m 0,0 km/h (0 Bft) 0,00 h 0,0 km/h (0 Bft)
09.04.2010 00:00 15,9 C 5,1 C 0,0 UV-I 0,0 C 53 % 90 % 0 % 1031,4 hPa 0,0 l/m 0,0 km/h (0 Bft) 0,00 h 0,0 km/h (0 Bft)
09.04.2010 01:00 15,6 C 4,3 C 0,0 UV-I 0,0 C 52 % 91 % 0 % 1031,7 hPa 0,0 l/m 0,0 km/h (0 Bft) 0,00 h 0,0 km/h (0 Bft)
09.04.2010 02:00 15,4 C 3,6 C 0,0 UV-I 0,0 C 51 % 91 % 0 % 1031,7 hPa 0,0 l/m 0,0 km/h (0 Bft) 0,00 h 0,0 km/h (0 Bft)
09.04.2010 03:00 15,2 C 3,0 C 0,0 UV-I 0,0 C 51 % 92 % 0 % 1031,6 hPa 0,0 l/m 0,0 km/h (0 Bft) 0,00 h 0,0 km/h (0 Bft)
09.04.2010 04:00 15,0 C 2,6 C 0,0 UV-I 0,0 C 50 % 93 % 0 % 1031,4 hPa 0,0 l/m 0,0 km/h (0 Bft) 0,00 h 0,0 km/h (0 Bft)
09.04.2010 05:00 14,8 C 2,2 C 0,0 UV-I 0,0 C 50 % 93 % 0 % 1031,3 hPa 0,0 l/m 0,0 km/h (0 Bft) 0,00 h 0,0 km/h (0 Bft)
09.04.2010 06:00 14,8 C 1,8 C 0,0 UV-I 0,0 C 49 % 93 % 0 % 1031,7 hPa 0,0 l/m 0,0 km/h (0 Bft) 0,00 h 0,0 km/h (0 Bft)
09.04.2010 07:00 14,6 C 1,6 C 0,0 UV-I 0,0 C 49 % 93 % 0 % 1032,3 hPa 0,0 l/m 0,0 km/h (0 Bft) 0,00 h 0,0 km/h (0 Bft)
09.04.2010 08:00 14,8 C 3,0 C 0,3 UV-I 1,0 C 50 % 95 % 29 % 1032,7 hPa 0,0 l/m 0,2 km/h (0 Bft) 0,00 h 0,9 km/h (0 Bft)
09.04.2010 09:00 14,9 C 5,1 C 0,4 UV-I 1,7 C 51 % 95 % 50 % 1033,1 hPa 0,0 l/m 0,9 km/h (0 Bft) 0,00 h 1,3 km/h (1 Bft)
09.04.2010 10:00 15,2 C 7,0 C 0,8 UV-I 2,2 C 51 % 91 % 63 % 1033,3 hPa 0,0 l/m 1,7 km/h (1 Bft) 0,00 h 3,8 km/h (1 Bft)
09.04.2010 11:00 15,5 C 9,2 C 3,1 UV-I 4,8 C 51 % 83 % 98 % 1033,5 hPa 0,0 l/m 3,6 km/h (1 Bft) 0,87 h 6,5 km/h (2 Bft)
09.04.2010 12:00 15,8 C 12,2 C 3,6 UV-I 5,8 C 51 % 73 % 99 % 1033,7 hPa 0,0 l/m 4,4 km/h (1 Bft) 0,63 h 6,1 km/h (2 Bft)
09.04.2010 13:00 16,5 C 14,5 C 3,7 UV-I 5,7 C 51 % 65 % 100 % 1033,3 hPa 0,0 l/m 5,3 km/h (1 Bft) 0,67 h 8,6 km/h (2 Bft)
09.04.2010 14:00 18,1 C 16,6 C 4,1 UV-I 4,8 C 48 % 57 % 98 % 1035,3 hPa 0,0 l/m 8,1 km/h (2 Bft) 0,93 h 11,4 km/h (2 Bft)
09.04.2010 15:00 18,2 C 16,5 C 0,8 UV-I 0,6 C 47 % 55 % 17 % 1033,5 hPa 0,0 l/m 5,6 km/h (1 Bft) 0,00 h 7,5 km/h (2 Bft)
09.04.2010 16:00 17,4 C 15,6 C 0,2 UV-I 0,0 C 49 % 58 % 1 % 1032,3 hPa 0,0 l/m 3,4 km/h (1 Bft) 0,00 h 6,0 km/h (2 Bft)
09.04.2010 17:00 17,2 C 15,4 C 0,6 UV-I 1,2 C 51 % 59 % 34 % 1032,1 hPa 0,0 l/m 3,4 km/h (1 Bft) 0,10 h 4,8 km/h (1 Bft)
09.04.2010 18:00 17,2 C 15,1 C 0,0 UV-I 0,1 C 51 % 60 % 3 % 1031,9 hPa 0,0 l/m 5,0 km/h (1 Bft) 0,00 h 7,1 km/h (2 Bft)
09.04.2010 19:00 17,2 C 14,3 C 0,0 UV-I 0,0 C 51 % 62 % 0 % 1032,0 hPa 0,0 l/m 4,2 km/h (1 Bft) 0,00 h 5,7 km/h (1 Bft)
09.04.2010 20:00 17,1 C 13,0 C 0,0 UV-I 0,0 C 51 % 67 % 0 % 1031,9 hPa 0,0 l/m 2,2 km/h (1 Bft) 0,00 h 3,1 km/h (1 Bft)
09.04.2010 21:00 16,7 C 11,5 C 0,0 UV-I 0,0 C 52 % 71 % 0 % 1032,3 hPa 0,0 l/m 1,0 km/h (0 Bft) 0,00 h 1,0 km/h (0 Bft)
09.04.2010 22:00 16,4 C 9,8 C 0,0 UV-I 0,0 C 52 % 77 % 0 % 1032,4 hPa 0,0 l/m 0,0 km/h (0 Bft) 0,00 h 0,0 km/h (0 Bft)
09.04.2010 23:00 16,2 C 8,4 C 0,0 UV-I 0,0 C 52 % 81 % 0 % 1032,3 hPa 0,0 l/m 0,0 km/h (0 Bft) 0,00 h 0,0 km/h (0 Bft)
10.04.2010 00:00 16,0 C 7,2 C 0,0 UV-I 0,0 C 52 % 84 % 0 % 1032,2 hPa 0,0 l/m 0,0 km/h (0 Bft) 0,00 h 0,0 km/h (0 Bft)
10.04.2010 01:00 15,8 C 6,4 C 0,0 UV-I 0,0 C 52 % 85 % 0 % 1032,3 hPa 0,0 l/m 0,0 km/h (0 Bft) 0,00 h 0,0 km/h (0 Bft)
10.04.2010 02:00 15,6 C 5,8 C 0,0 UV-I 0,0 C 52 % 87 % 0 % 1032,0 hPa 0,0 l/m 0,0 km/h (0 Bft) 0,00 h 0,0 km/h (0 Bft)
10.04.2010 03:00 15,5 C 5,9 C 0,0 UV-I 0,0 C 53 % 89 % 0 % 1032,1 hPa 0,0 l/m 0,1 km/h (0 Bft) 0,00 h 0,2 km/h (0 Bft)
10.04.2010 04:00 15,5 C 6,6 C 0,0 UV-I 0,2 C 53 % 90 % 0 % 1032,0 hPa 0,0 l/m 1,4 km/h (1 Bft) 0,00 h 2,9 km/h (1 Bft)
10.04.2010 05:00 15,4 C 7,2 C 0,0 UV-I 0,0 C 54 % 88 % 0 % 1032,0 hPa 0,0 l/m 2,1 km/h (1 Bft) 0,00 h 2,7 km/h (1 Bft)
10.04.2010 06:00 15,4 C 6,8 C 0,0 UV-I 0,0 C 53 % 87 % 0 % 1032,0 hPa 0,0 l/m 0,5 km/h (0 Bft) 0,00 h 0,7 km/h (0 Bft)
10.04.2010 07:00 15,2 C 6,4 C 0,0 UV-I 0,0 C 53 % 87 % 0 % 1032,3 hPa 0,0 l/m 0,3 km/h (0 Bft) 0,00 h 0,6 km/h (0 Bft)
10.04.2010 08:00 15,2 C 6,4 C 0,4 UV-I 0,0 C 54 % 88 % 1 % 1032,4 hPa 0,0 l/m 3,9 km/h (1 Bft) 0,00 h 5,7 km/h (1 Bft)
10.04.2010 09:00 15,4 C 7,5 C 1,0 UV-I 2,0 C 54 % 83 % 56 % 1032,5 hPa 0,0 l/m 4,0 km/h (1 Bft) 0,20 h 6,1 km/h (2 Bft)
10.04.2010 10:00 15,5 C 9,3 C 4,1 UV-I 6,0 C 52 % 72 % 100 % 1032,6 hPa 0,0 l/m 6,9 km/h (2 Bft) 0,93 h 9,4 km/h (2 Bft)
10.04.2010 11:00 15,7 C 10,8 C 2,8 UV-I 3,6 C 52 % 66 % 86 % 1032,5 hPa 0,0 l/m 7,8 km/h (2 Bft) 0,63 h 10,5 km/h (2 Bft)
10.04.2010 12:00 16,0 C 11,3 C 2,3 UV-I 2,6 C 50 % 65 % 72 % 1032,2 hPa 0,0 l/m 9,9 km/h (2 Bft) 0,37 h 14,7 km/h (3 Bft)
10.04.2010 13:00 16,4 C 11,8 C 3,0 UV-I 3,2 C 50 % 62 % 81 % 1032,0 hPa 0,0 l/m 11,8 km/h (2 Bft) 0,50 h 15,4 km/h (3 Bft)
10.04.2010 14:00 17,0 C 11,8 C 2,4 UV-I 2,2 C 48 % 61 % 62 % 1032,0 hPa 0,0 l/m 9,8 km/h (2 Bft) 0,10 h 12,4 km/h (3 Bft)
10.04.2010 15:00 17,2 C 12,2 C 2,5 UV-I 2,7 C 46 % 59 % 75 % 1031,6 hPa 0,0 l/m 9,4 km/h (2 Bft) 0,43 h 12,8 km/h (3 Bft)
10.04.2010 16:00 17,9 C 13,1 C 4,6 UV-I 4,9 C 45 % 56 % 96 % 1031,1 hPa 0,0 l/m 10,0 km/h (2 Bft) 0,80 h 12,9 km/h (3 Bft)
10.04.2010 17:00 18,5 C 13,4 C 2,7 UV-I 3,2 C 44 % 54 % 82 % 1031,3 hPa 0,0 l/m 8,7 km/h (2 Bft) 0,42 h 11,7 km/h (2 Bft)
10.04.2010 18:00 18,2 C 12,4 C 0,8 UV-I 1,4 C 44 % 56 % 39 % 1030,3 hPa 0,0 l/m 9,1 km/h (2 Bft) 0,07 h 11,2 km/h (2 Bft)
10.04.2010 19:00 18,0 C 11,2 C 0,0 UV-I 0,0 C 44 % 61 % 1 % 1029,8 hPa 0,0 l/m 6,0 km/h (2 Bft) 0,00 h 7,6 km/h (2 Bft)
10.04.2010 20:00 17,2 C 9,4 C 0,0 UV-I 0,0 C 45 % 64 % 0 % 1029,3 hPa 0,0 l/m 7,3 km/h (2 Bft) 0,00 h 8,5 km/h (2 Bft)
10.04.2010 21:00 16,6 C 7,8 C 0,0 UV-I 0,0 C 46 % 69 % 0 % 1029,2 hPa 0,0 l/m 2,8 km/h (1 Bft) 0,00 h 3,5 km/h (1 Bft)
10.04.2010 22:00 16,2 C 6,4 C 0,0 UV-I 0,0 C 47 % 74 % 0 % 1029,2 hPa 0,0 l/m 0,2 km/h (0 Bft) 0,00 h 0,3 km/h (0 Bft)
10.04.2010 23:00 16,0 C 5,6 C 0,0 UV-I 0,0 C 48 % 77 % 0 % 1029,2 hPa 0,0 l/m 0,9 km/h (0 Bft) 0,00 h 1,5 km/h (1 Bft)
11.04.2010 00:00 15,9 C 5,1 C 0,0 UV-I 0,0 C 48 % 78 % 0 % 1029,0 hPa 0,0 l/m 0,8 km/h (0 Bft) 0,00 h 2,0 km/h (1 Bft)
11.04.2010 01:00 15,7 C 4,6 C 0,0 UV-I 0,0 C 48 % 80 % 0 % 1028,9 hPa 0,0 l/m 5,1 km/h (1 Bft) 0,00 h 6,7 km/h (2 Bft)
11.04.2010 02:00 15,5 C 4,1 C 0,0 UV-I 0,0 C 49 % 81 % 0 % 1028,7 hPa 0,0 l/m 3,4 km/h (1 Bft) 0,00 h 4,1 km/h (1 Bft)
11.04.2010 03:00 15,2 C 3,5 C 0,0 UV-I 0,0 C 49 % 83 % 0 % 1028,0 hPa 0,0 l/m 1,7 km/h (1 Bft) 0,00 h 2,2 km/h (1 Bft)
11.04.2010 04:00 15,2 C 3,0 C 0,0 UV-I 0,0 C 49 % 85 % 0 % 1027,3 hPa 0,0 l/m 0,9 km/h (0 Bft) 0,00 h 1,8 km/h (1 Bft)
11.04.2010 05:00 15,0 C 2,3 C 0,0 UV-I 0,0 C 49 % 86 % 0 % 1027,0 hPa 0,0 l/m 0,6 km/h (0 Bft) 0,00 h 1,4 km/h (1 Bft)
11.04.2010 06:00 14,8 C 2,1 C 0,0 UV-I 0,0 C 49 % 89 % 0 % 1026,8 hPa 0,0 l/m 4,3 km/h (1 Bft) 0,00 h 5,6 km/h (1 Bft)
11.04.2010 07:00 14,8 C 2,0 C 0,0 UV-I 0,0 C 50 % 90 % 0 % 1026,8 hPa 0,0 l/m 4,2 km/h (1 Bft) 0,00 h 5,4 km/h (1 Bft)
11.04.2010 08:00 14,7 C 2,4 C 0,1 UV-I 0,0 C 50 % 91 % 1 % 1026,7 hPa 0,0 l/m 3,9 km/h (1 Bft) 0,00 h 6,1 km/h (2 Bft)
11.04.2010 09:00 14,8 C 3,7 C 0,8 UV-I 1,2 C 50 % 92 % 34 % 1026,7 hPa 0,0 l/m 6,7 km/h (2 Bft) 0,00 h 10,5 km/h (2 Bft)
11.04.2010 10:00 15,0 C 6,0 C 2,2 UV-I 4,2 C 50 % 88 % 96 % 1026,4 hPa 0,0 l/m 9,1 km/h (2 Bft) 0,70 h 13,3 km/h (3 Bft)
11.04.2010 11:00 15,3 C 8,6 C 4,1 UV-I 6,1 C 49 % 79 % 100 % 1026,2 hPa 0,0 l/m 7,2 km/h (2 Bft) 0,83 h 10,1 km/h (2 Bft)
11.04.2010 12:00 15,6 C 9,8 C 1,3 UV-I 1,7 C 49 % 69 % 46 % 1026,0 hPa 0,0 l/m 4,6 km/h (1 Bft) 0,13 h 7,2 km/h (2 Bft)
11.04.2010 13:00 15,6 C 9,7 C 1,0 UV-I 0,7 C 48 % 68 % 21 % 1025,7 hPa 0,0 l/m 2,4 km/h (1 Bft) 0,00 h 3,4 km/h (1 Bft)
11.04.2010 14:00 15,7 C 10,0 C 0,9 UV-I 1,2 C 48 % 63 % 34 % 1025,6 hPa 0,0 l/m 6,0 km/h (2 Bft) 0,00 h 7,9 km/h (2 Bft)
11.04.2010 15:00 15,8 C 10,3 C 1,4 UV-I 1,4 C 47 % 62 % 40 % 1025,2 hPa 0,0 l/m 5,6 km/h (1 Bft) 0,13 h 7,0 km/h (2 Bft)
11.04.2010 16:00 15,8 C 10,0 C 0,4 UV-I 0,4 C 46 % 63 % 11 % 1024,8 hPa 0,0 l/m 5,0 km/h (1 Bft) 0,00 h 6,4 km/h (2 Bft)
11.04.2010 17:00 15,7 C 9,6 C 0,4 UV-I 0,2 C 47 % 66 % 7 % 1024,5 hPa 0,0 l/m 6,6 km/h (2 Bft) 0,00 h 8,8 km/h (2 Bft)
11.04.2010 18:00 15,7 C 9,0 C 0,6 UV-I 0,9 C 47 % 71 % 25 % 1024,5 hPa 0,0 l/m 9,2 km/h (2 Bft) 0,00 h 11,6 km/h (2 Bft)
11.04.2010 19:00 15,9 C 8,4 C 0,0 UV-I 0,0 C 47 % 73 % 0 % 1024,6 hPa 0,0 l/m 4,9 km/h (1 Bft) 0,00 h 6,3 km/h (2 Bft)
11.04.2010 20:00 15,7 C 7,9 C 0,0 UV-I 0,0 C 48 % 75 % 0 % 1024,5 hPa 0,0 l/m 3,7 km/h (1 Bft) 0,00 h 4,3 km/h (1 Bft)
11.04.2010 21:00 15,4 C 6,8 C 0,0 UV-I 0,0 C 49 % 77 % 0 % 1024,9 hPa 0,0 l/m 4,1 km/h (1 Bft) 0,00 h 5,3 km/h (1 Bft)
11.04.2010 22:00 15,2 C 5,9 C 0,0 UV-I 0,0 C 49 % 81 % 0 % 1025,1 hPa 0,0 l/m 2,1 km/h (1 Bft) 0,00 h 3,1 km/h (1 Bft)
11.04.2010 23:00 15,1 C 5,7 C 0,0 UV-I 0,0 C 50 % 83 % 0 % 1025,1 hPa 0,0 l/m 1,7 km/h (1 Bft) 0,00 h 3,2 km/h (1 Bft)
Min-Datum _ 05.04.10 09.04.10 05.04.10 05.04.10 05.04.10 06.04.10 05.04.10 07.04.10 - 06.04.10 - 05.04.10
_ Min-Zeit 08:04 07:14 00:00 00:00 17:02 17:22 00:00 03:32 - 01:26 - 00:02
Minimum _ 14,1 C 1,5 C 0,0 UV-I 0,0 C 41 % 32 % 0 % 1016,9 hPa - 0,0 km/h (0 Bft) - 0,0 km/h (0 Bft)
Max-Datum _ 06.04.10 06.04.10 05.04.10 06.04.10 08.04.10 09.04.10 05.04.10 09.04.10 08.04.10 07.04.10 05.04.10 07.04.10
_ Max-Zeit 17:24 17:18 12:56 10:34 13:22 08:14 10:02 14:32 12:02 09:52 10:00 10:00
Maximum _ 19,6 C 21,3 C 8,3 UV-I 8,7 C 59 % 95 % 100 % 1037,0 hPa 0,4 l/m 18,5 km/h
NO (3 Bft)
0,03 h 41,4 km/h
NO (6 Bft)
Durchschnitt _ 16,3 C 9,8 C 0,9 UV-I 1,0 C 49 % 73 % 23 % 1025,9 hPa #0,9 l/m 4,2 km/h (1 Bft) #25:29 h 6,1 km/h (2 Bft)
© 2012 W. Hausmann